Lawn, Texas
Current Conditions -  °F | °C
As of 1:52 AM on Friday 24 Oct 2014 (Local Time) from KABI Reporting Station
Clear Clear  
Wind Chill: 64°   Ceiling: Unl
Heat Index: 64°   Visibility: 10mi
Dew Point: 59°   Wind: 7mph
Humidity: 84%   Direction: 170°S
Pressure: 30.12"   Gusts: NA
Location:  32.13°N, 99.75°W
Report Text: KABI 240652Z 17006KT 10SM CLR 18/15 A3012 RMK AO2 SLP176 T01780150
Loading
Personal Weather Stations






























Interactive Weather Map
Tropical Storm Tracking
New forecast layout! Learn more

10-Day Weather Forecast

Advertisements
Track Severe Weather on mobile